sensor_id;sensor_type;location;lat;lon;timestamp;P1;durP1;ratioP1;P2;durP2;ratioP2
14247;SDS011;7208;49.826;6.004;2023-03-25T00:02:18;1.17;;;0.80;;
14247;SDS011;7208;49.826;6.004;2023-03-25T00:04:47;1.10;;;0.83;;
14247;SDS011;7208;49.826;6.004;2023-03-25T00:07:14;2.53;;;0.97;;
14247;SDS011;7208;49.826;6.004;2023-03-25T00:09:42;1.93;;;1.20;;
14247;SDS011;7208;49.826;6.004;2023-03-25T00:12:08;2.73;;;1.30;;
14247;SDS011;7208;49.826;6.004;2023-03-25T00:14:34;1.73;;;1.00;;
14247;SDS011;7208;49.826;6.004;2023-03-25T00:17:00;1.27;;;0.80;;
14247;SDS011;7208;49.826;6.004;2023-03-25T00:19:26;3.53;;;1.17;;
14247;SDS011;7208;49.826;6.004;2023-03-25T00:21:52;1.87;;;0.93;;
14247;SDS011;7208;49.826;6.004;2023-03-25T00:24:18;2.27;;;1.00;;
14247;SDS011;7208;49.826;6.004;2023-03-25T00:26:45;1.70;;;0.97;;
14247;SDS011;7208;49.826;6.004;2023-03-25T00:29:13;3.50;;;0.97;;
14247;SDS011;7208;49.826;6.004;2023-03-25T00:31:39;1.27;;;0.73;;
14247;SDS011;7208;49.826;6.004;2023-03-25T00:34:06;0.93;;;0.73;;
14247;SDS011;7208;49.826;6.004;2023-03-25T00:36:32;0.53;;;0.50;;
14247;SDS011;7208;49.826;6.004;2023-03-25T00:39:02;1.20;;;0.60;;
14247;SDS011;7208;49.826;6.004;2023-03-25T00:41:28;1.67;;;0.80;;
14247;SDS011;7208;49.826;6.004;2023-03-25T00:43:55;1.40;;;0.80;;
14247;SDS011;7208;49.826;6.004;2023-03-25T00:46:22;1.27;;;0.50;;
14247;SDS011;7208;49.826;6.004;2023-03-25T00:48:49;4.03;;;0.70;;
14247;SDS011;7208;49.826;6.004;2023-03-25T00:51:16;2.07;;;0.70;;
14247;SDS011;7208;49.826;6.004;2023-03-25T00:53:45;2.77;;;0.83;;
14247;SDS011;7208;49.826;6.004;2023-03-25T00:56:11;0.60;;;0.60;;
14247;SDS011;7208;49.826;6.004;2023-03-25T00:58:38;0.50;;;0.50;;
14247;SDS011;7208;49.826;6.004;2023-03-25T01:01:08;2.07;;;0.63;;
14247;SDS011;7208;49.826;6.004;2023-03-25T01:03:34;1.30;;;0.60;;
14247;SDS011;7208;49.826;6.004;2023-03-25T01:06:01;1.53;;;0.50;;
14247;SDS011;7208;49.826;6.004;2023-03-25T01:08:27;0.60;;;0.60;;
14247;SDS011;7208;49.826;6.004;2023-03-25T01:10:53;1.03;;;0.67;;
14247;SDS011;7208;49.826;6.004;2023-03-25T01:13:20;2.67;;;0.80;;
14247;SDS011;7208;49.826;6.004;2023-03-25T01:15:46;0.40;;;0.40;;
14247;SDS011;7208;49.826;6.004;2023-03-25T01:18:12;2.30;;;0.70;;
14247;SDS011;7208;49.826;6.004;2023-03-25T01:20:39;1.10;;;0.80;;
14247;SDS011;7208;49.826;6.004;2023-03-25T01:23:05;0.50;;;0.50;;
14247;SDS011;7208;49.826;6.004;2023-03-25T01:25:33;1.10;;;0.50;;
14247;SDS011;7208;49.826;6.004;2023-03-25T01:27:59;2.63;;;0.63;;
14247;SDS011;7208;49.826;6.004;2023-03-25T01:30:25;0.33;;;0.33;;
14247;SDS011;7208;49.826;6.004;2023-03-25T01:32:51;1.33;;;0.53;;
14247;SDS011;7208;49.826;6.004;2023-03-25T01:35:17;1.53;;;0.60;;
14247;SDS011;7208;49.826;6.004;2023-03-25T01:37:43;0.90;;;0.60;;
14247;SDS011;7208;49.826;6.004;2023-03-25T01:40:15;2.20;;;0.63;;
14247;SDS011;7208;49.826;6.004;2023-03-25T01:42:42;0.43;;;0.43;;
14247;SDS011;7208;49.826;6.004;2023-03-25T01:47:40;0.53;;;0.53;;
14247;SDS011;7208;49.826;6.004;2023-03-25T01:50:08;0.30;;;0.30;;
14247;SDS011;7208;49.826;6.004;2023-03-25T01:52:39;0.53;;;0.47;;
14247;SDS011;7208;49.826;6.004;2023-03-25T01:55:06;0.50;;;0.50;;
14247;SDS011;7208;49.826;6.004;2023-03-25T01:57:32;1.57;;;0.70;;
14247;SDS011;7208;49.826;6.004;2023-03-25T01:59:58;0.93;;;0.50;;
14247;SDS011;7208;49.826;6.004;2023-03-25T02:02:24;0.40;;;0.40;;
14247;SDS011;7208;49.826;6.004;2023-03-25T02:04:59;0.97;;;0.60;;
14247;SDS011;7208;49.826;6.004;2023-03-25T02:07:29;3.00;;;0.47;;
14247;SDS011;7208;49.826;6.004;2023-03-25T02:10:00;0.50;;;0.50;;
14247;SDS011;7208;49.826;6.004;2023-03-25T02:12:28;0.80;;;0.50;;
14247;SDS011;7208;49.826;6.004;2023-03-25T02:14:54;0.57;;;0.57;;
14247;SDS011;7208;49.826;6.004;2023-03-25T02:17:25;0.67;;;0.53;;
14247;SDS011;7208;49.826;6.004;2023-03-25T02:20:13;0.50;;;0.50;;
14247;SDS011;7208;49.826;6.004;2023-03-25T02:38:18;1.13;;;0.63;;
14247;SDS011;7208;49.826;6.004;2023-03-25T02:41:25;2.23;;;0.73;;
14247;SDS011;7208;49.826;6.004;2023-03-25T02:44:01;0.60;;;0.53;;
14247;SDS011;7208;49.826;6.004;2023-03-25T02:46:27;2.17;;;0.50;;
14247;SDS011;7208;49.826;6.004;2023-03-25T02:51:25;1.03;;;0.63;;
14247;SDS011;7208;49.826;6.004;2023-03-25T02:53:53;1.23;;;0.50;;
14247;SDS011;7208;49.826;6.004;2023-03-25T02:56:20;0.60;;;0.50;;
14247;SDS011;7208;49.826;6.004;2023-03-25T02:58:49;2.00;;;0.50;;
14247;SDS011;7208;49.826;6.004;2023-03-25T03:01:15;1.37;;;0.80;;
14247;SDS011;7208;49.826;6.004;2023-03-25T03:03:41;0.40;;;0.40;;
14247;SDS011;7208;49.826;6.004;2023-03-25T03:06:07;0.80;;;0.60;;
14247;SDS011;7208;49.826;6.004;2023-03-25T03:21:39;2.10;;;0.67;;
14247;SDS011;7208;49.826;6.004;2023-03-25T03:29:13;0.50;;;0.50;;
14247;SDS011;7208;49.826;6.004;2023-03-25T03:32:14;0.30;;;0.30;;
14247;SDS011;7208;49.826;6.004;2023-03-25T03:34:35;2.90;;;0.80;;
14247;SDS011;7208;49.826;6.004;2023-03-25T03:37:07;0.57;;;0.43;;
14247;SDS011;7208;49.826;6.004;2023-03-25T03:39:35;0.60;;;0.60;;
14247;SDS011;7208;49.826;6.004;2023-03-25T03:42:06;0.70;;;0.50;;
14247;SDS011;7208;49.826;6.004;2023-03-25T03:44:35;2.10;;;0.60;;
14247;SDS011;7208;49.826;6.004;2023-03-25T03:47:04;2.50;;;0.80;;
14247;SDS011;7208;49.826;6.004;2023-03-25T03:49:34;0.70;;;0.70;;
14247;SDS011;7208;49.826;6.004;2023-03-25T03:52:09;1.80;;;0.50;;
14247;SDS011;7208;49.826;6.004;2023-03-25T03:54:44;4.83;;;0.50;;
14247;SDS011;7208;49.826;6.004;2023-03-25T03:57:23;1.37;;;0.63;;
14247;SDS011;7208;49.826;6.004;2023-03-25T04:00:04;0.50;;;0.40;;
14247;SDS011;7208;49.826;6.004;2023-03-25T04:02:47;1.43;;;0.57;;
14247;SDS011;7208;49.826;6.004;2023-03-25T04:05:15;1.07;;;0.50;;
14247;SDS011;7208;49.826;6.004;2023-03-25T04:08:01;3.63;;;0.83;;
14247;SDS011;7208;49.826;6.004;2023-03-25T04:10:40;2.40;;;0.57;;
14247;SDS011;7208;49.826;6.004;2023-03-25T04:13:10;3.50;;;1.43;;
14247;SDS011;7208;49.826;6.004;2023-03-25T04:15:38;5.73;;;0.80;;
14247;SDS011;7208;49.826;6.004;2023-03-25T04:18:04;1.73;;;1.20;;
14247;SDS011;7208;49.826;6.004;2023-03-25T04:20:31;0.50;;;0.50;;
14247;SDS011;7208;49.826;6.004;2023-03-25T04:23:01;0.93;;;0.53;;
14247;SDS011;7208;49.826;6.004;2023-03-25T04:25:28;0.40;;;0.40;;
14247;SDS011;7208;49.826;6.004;2023-03-25T04:27:56;6.37;;;1.10;;
14247;SDS011;7208;49.826;6.004;2023-03-25T04:30:23;3.70;;;0.70;;
14247;SDS011;7208;49.826;6.004;2023-03-25T04:32:49;1.17;;;0.50;;
14247;SDS011;7208;49.826;6.004;2023-03-25T04:35:16;2.87;;;0.60;;
14247;SDS011;7208;49.826;6.004;2023-03-25T04:37:43;2.60;;;0.70;;
14247;SDS011;7208;49.826;6.004;2023-03-25T04:40:10;1.90;;;1.03;;
14247;SDS011;7208;49.826;6.004;2023-03-25T04:42:38;0.60;;;0.50;;
14247;SDS011;7208;49.826;6.004;2023-03-25T04:45:06;2.20;;;0.97;;
14247;SDS011;7208;49.826;6.004;2023-03-25T04:47:32;4.43;;;1.27;;
14247;SDS011;7208;49.826;6.004;2023-03-25T04:49:59;1.70;;;0.67;;
14247;SDS011;7208;49.826;6.004;2023-03-25T04:52:25;1.83;;;1.10;;
14247;SDS011;7208;49.826;6.004;2023-03-25T04:54:51;2.30;;;0.57;;
14247;SDS011;7208;49.826;6.004;2023-03-25T04:57:18;1.17;;;0.70;;
14247;SDS011;7208;49.826;6.004;2023-03-25T04:59:44;2.70;;;1.10;;
14247;SDS011;7208;49.826;6.004;2023-03-25T05:02:10;2.90;;;0.90;;
14247;SDS011;7208;49.826;6.004;2023-03-25T05:04:37;1.77;;;0.73;;
14247;SDS011;7208;49.826;6.004;2023-03-25T05:07:06;4.23;;;1.03;;
14247;SDS011;7208;49.826;6.004;2023-03-25T05:09:32;3.20;;;1.30;;
14247;SDS011;7208;49.826;6.004;2023-03-25T05:11:58;5.80;;;0.80;;
14247;SDS011;7208;49.826;6.004;2023-03-25T05:14:24;3.30;;;0.80;;
14247;SDS011;7208;49.826;6.004;2023-03-25T05:16:50;7.73;;;0.93;;
14247;SDS011;7208;49.826;6.004;2023-03-25T05:19:16;4.30;;;0.77;;
14247;SDS011;7208;49.826;6.004;2023-03-25T05:21:43;1.93;;;0.87;;
14247;SDS011;7208;49.826;6.004;2023-03-25T05:24:10;3.67;;;0.97;;
14247;SDS011;7208;49.826;6.004;2023-03-25T05:26:37;2.97;;;1.03;;
14247;SDS011;7208;49.826;6.004;2023-03-25T05:29:04;2.77;;;1.00;;
14247;SDS011;7208;49.826;6.004;2023-03-25T05:31:30;3.43;;;0.70;;
14247;SDS011;7208;49.826;6.004;2023-03-25T05:33:57;4.50;;;0.63;;
14247;SDS011;7208;49.826;6.004;2023-03-25T05:36:23;4.13;;;0.80;;
14247;SDS011;7208;49.826;6.004;2023-03-25T05:38:51;2.17;;;0.70;;
14247;SDS011;7208;49.826;6.004;2023-03-25T05:41:18;4.87;;;0.93;;
14247;SDS011;7208;49.826;6.004;2023-03-25T05:43:45;5.63;;;1.03;;
14247;SDS011;7208;49.826;6.004;2023-03-25T05:46:14;6.23;;;0.87;;
14247;SDS011;7208;49.826;6.004;2023-03-25T05:48:41;5.63;;;1.10;;
14247;SDS011;7208;49.826;6.004;2023-03-25T05:51:12;3.23;;;0.80;;
14247;SDS011;7208;49.826;6.004;2023-03-25T05:53:39;2.77;;;0.93;;
14247;SDS011;7208;49.826;6.004;2023-03-25T05:56:07;5.87;;;1.50;;
14247;SDS011;7208;49.826;6.004;2023-03-25T05:58:33;4.83;;;0.70;;
14247;SDS011;7208;49.826;6.004;2023-03-25T06:01:00;3.23;;;1.13;;
14247;SDS011;7208;49.826;6.004;2023-03-25T06:03:29;4.47;;;1.13;;
14247;SDS011;7208;49.826;6.004;2023-03-25T06:05:58;4.80;;;1.07;;
14247;SDS011;7208;49.826;6.004;2023-03-25T06:08:25;1.83;;;0.90;;
14247;SDS011;7208;49.826;6.004;2023-03-25T06:10:51;4.87;;;1.07;;
14247;SDS011;7208;49.826;6.004;2023-03-25T06:13:24;3.53;;;1.00;;
14247;SDS011;7208;49.826;6.004;2023-03-25T06:15:51;4.67;;;1.00;;
14247;SDS011;7208;49.826;6.004;2023-03-25T06:18:24;4.00;;;1.20;;
14247;SDS011;7208;49.826;6.004;2023-03-25T06:20:51;2.30;;;0.90;;
14247;SDS011;7208;49.826;6.004;2023-03-25T06:23:18;4.33;;;1.00;;
14247;SDS011;7208;49.826;6.004;2023-03-25T06:25:46;4.07;;;0.93;;
14247;SDS011;7208;49.826;6.004;2023-03-25T06:28:12;3.10;;;0.90;;
14247;SDS011;7208;49.826;6.004;2023-03-25T06:30:42;2.97;;;0.80;;
14247;SDS011;7208;49.826;6.004;2023-03-25T06:33:08;4.73;;;1.17;;
14247;SDS011;7208;49.826;6.004;2023-03-25T06:35:34;7.67;;;1.17;;
14247;SDS011;7208;49.826;6.004;2023-03-25T06:38:00;5.50;;;0.60;;
14247;SDS011;7208;49.826;6.004;2023-03-25T06:40:27;7.97;;;1.40;;
14247;SDS011;7208;49.826;6.004;2023-03-25T06:42:53;6.20;;;1.00;;
14247;SDS011;7208;49.826;6.004;2023-03-25T06:45:19;5.60;;;0.90;;
14247;SDS011;7208;49.826;6.004;2023-03-25T06:47:45;6.13;;;1.10;;
14247;SDS011;7208;49.826;6.004;2023-03-25T06:50:11;3.17;;;0.87;;
14247;SDS011;7208;49.826;6.004;2023-03-25T06:52:37;2.80;;;1.20;;
14247;SDS011;7208;49.826;6.004;2023-03-25T06:55:03;5.00;;;1.00;;
14247;SDS011;7208;49.826;6.004;2023-03-25T06:57:29;4.70;;;1.30;;
14247;SDS011;7208;49.826;6.004;2023-03-25T06:59:55;4.23;;;1.00;;
14247;SDS011;7208;49.826;6.004;2023-03-25T07:02:21;7.83;;;1.27;;
14247;SDS011;7208;49.826;6.004;2023-03-25T07:04:47;4.20;;;0.93;;
14247;SDS011;7208;49.826;6.004;2023-03-25T07:07:14;2.63;;;0.70;;
14247;SDS011;7208;49.826;6.004;2023-03-25T07:09:40;5.00;;;1.00;;
14247;SDS011;7208;49.826;6.004;2023-03-25T07:12:06;4.83;;;1.40;;
14247;SDS011;7208;49.826;6.004;2023-03-25T07:14:32;4.23;;;1.00;;
14247;SDS011;7208;49.826;6.004;2023-03-25T07:16:58;4.67;;;0.60;;
14247;SDS011;7208;49.826;6.004;2023-03-25T07:19:24;1.33;;;0.60;;
14247;SDS011;7208;49.826;6.004;2023-03-25T07:21:50;1.20;;;0.60;;
14247;SDS011;7208;49.826;6.004;2023-03-25T07:24:16;2.80;;;1.00;;
14247;SDS011;7208;49.826;6.004;2023-03-25T07:26:42;2.07;;;0.70;;
14247;SDS011;7208;49.826;6.004;2023-03-25T07:29:08;1.67;;;0.50;;
14247;SDS011;7208;49.826;6.004;2023-03-25T07:31:34;1.83;;;0.63;;
14247;SDS011;7208;49.826;6.004;2023-03-25T07:34:00;1.43;;;0.80;;
14247;SDS011;7208;49.826;6.004;2023-03-25T07:36:26;2.63;;;0.70;;
14247;SDS011;7208;49.826;6.004;2023-03-25T07:38:52;2.50;;;0.60;;
14247;SDS011;7208;49.826;6.004;2023-03-25T07:41:18;3.20;;;0.60;;
14247;SDS011;7208;49.826;6.004;2023-03-25T07:43:44;4.67;;;0.80;;
14247;SDS011;7208;49.826;6.004;2023-03-25T07:46:10;3.17;;;0.97;;
14247;SDS011;7208;49.826;6.004;2023-03-25T07:48:36;3.87;;;1.13;;
14247;SDS011;7208;49.826;6.004;2023-03-25T07:51:02;0.60;;;0.40;;
14247;SDS011;7208;49.826;6.004;2023-03-25T07:53:29;3.77;;;0.90;;
14247;SDS011;7208;49.826;6.004;2023-03-25T07:55:55;1.63;;;0.60;;
14247;SDS011;7208;49.826;6.004;2023-03-25T07:58:21;2.77;;;0.70;;
14247;SDS011;7208;49.826;6.004;2023-03-25T08:00:47;0.90;;;0.47;;
14247;SDS011;7208;49.826;6.004;2023-03-25T08:03:13;2.97;;;0.63;;
14247;SDS011;7208;49.826;6.004;2023-03-25T08:05:46;3.20;;;0.80;;
14247;SDS011;7208;49.826;6.004;2023-03-25T08:08:13;1.17;;;0.60;;
14247;SDS011;7208;49.826;6.004;2023-03-25T08:10:42;2.50;;;0.70;;
14247;SDS011;7208;49.826;6.004;2023-03-25T08:13:10;0.50;;;0.50;;
14247;SDS011;7208;49.826;6.004;2023-03-25T08:15:37;2.60;;;0.70;;
14247;SDS011;7208;49.826;6.004;2023-03-25T08:18:03;1.97;;;0.50;;
14247;SDS011;7208;49.826;6.004;2023-03-25T08:20:30;2.23;;;0.80;;
14247;SDS011;7208;49.826;6.004;2023-03-25T08:22:56;2.57;;;0.60;;
14247;SDS011;7208;49.826;6.004;2023-03-25T08:25:23;1.87;;;0.70;;
14247;SDS011;7208;49.826;6.004;2023-03-25T08:27:49;2.17;;;0.50;;
14247;SDS011;7208;49.826;6.004;2023-03-25T08:30:15;4.37;;;0.80;;
14247;SDS011;7208;49.826;6.004;2023-03-25T08:32:41;1.10;;;0.50;;
14247;SDS011;7208;49.826;6.004;2023-03-25T08:35:10;2.30;;;0.70;;
14247;SDS011;7208;49.826;6.004;2023-03-25T08:37:36;2.53;;;0.57;;
14247;SDS011;7208;49.826;6.004;2023-03-25T08:40:06;1.23;;;0.57;;
14247;SDS011;7208;49.826;6.004;2023-03-25T08:42:35;3.80;;;0.70;;
14247;SDS011;7208;49.826;6.004;2023-03-25T08:45:02;1.33;;;0.73;;
14247;SDS011;7208;49.826;6.004;2023-03-25T08:47:28;1.70;;;0.70;;
14247;SDS011;7208;49.826;6.004;2023-03-25T08:49:54;1.53;;;0.87;;
14247;SDS011;7208;49.826;6.004;2023-03-25T08:52:20;3.20;;;0.80;;
14247;SDS011;7208;49.826;6.004;2023-03-25T08:54:46;2.47;;;0.63;;
14247;SDS011;7208;49.826;6.004;2023-03-25T08:57:12;1.53;;;0.50;;
14247;SDS011;7208;49.826;6.004;2023-03-25T08:59:38;2.07;;;0.60;;
14247;SDS011;7208;49.826;6.004;2023-03-25T09:02:04;3.00;;;0.63;;
14247;SDS011;7208;49.826;6.004;2023-03-25T09:04:31;1.50;;;0.70;;
14247;SDS011;7208;49.826;6.004;2023-03-25T09:06:57;2.70;;;0.67;;
14247;SDS011;7208;49.826;6.004;2023-03-25T09:09:23;1.83;;;1.00;;
14247;SDS011;7208;49.826;6.004;2023-03-25T09:11:49;2.50;;;0.57;;
14247;SDS011;7208;49.826;6.004;2023-03-25T09:14:15;3.50;;;0.60;;
14247;SDS011;7208;49.826;6.004;2023-03-25T09:16:41;0.87;;;0.50;;
14247;SDS011;7208;49.826;6.004;2023-03-25T09:19:07;2.60;;;0.50;;
14247;SDS011;7208;49.826;6.004;2023-03-25T09:21:33;2.77;;;0.80;;
14247;SDS011;7208;49.826;6.004;2023-03-25T09:23:59;4.40;;;0.77;;
14247;SDS011;7208;49.826;6.004;2023-03-25T09:26:25;2.00;;;0.70;;
14247;SDS011;7208;49.826;6.004;2023-03-25T09:28:52;2.47;;;0.57;;
14247;SDS011;7208;49.826;6.004;2023-03-25T09:31:20;2.27;;;0.80;;
14247;SDS011;7208;49.826;6.004;2023-03-25T09:33:46;3.30;;;0.80;;
14247;SDS011;7208;49.826;6.004;2023-03-25T09:36:12;1.30;;;0.60;;
14247;SDS011;7208;49.826;6.004;2023-03-25T09:38:38;2.10;;;0.60;;
14247;SDS011;7208;49.826;6.004;2023-03-25T09:41:18;1.93;;;0.50;;
14247;SDS011;7208;49.826;6.004;2023-03-25T09:44:04;2.73;;;0.60;;
14247;SDS011;7208;49.826;6.004;2023-03-25T09:46:35;2.93;;;0.60;;
14247;SDS011;7208;49.826;6.004;2023-03-25T09:49:02;2.83;;;0.80;;
14247;SDS011;7208;49.826;6.004;2023-03-25T09:51:28;1.50;;;0.47;;
14247;SDS011;7208;49.826;6.004;2023-03-25T09:54:01;2.93;;;0.57;;
14247;SDS011;7208;49.826;6.004;2023-03-25T09:56:30;1.30;;;0.50;;
14247;SDS011;7208;49.826;6.004;2023-03-25T09:59:31;1.30;;;0.60;;
14247;SDS011;7208;49.826;6.004;2023-03-25T10:07:30;2.10;;;0.57;;
14247;SDS011;7208;49.826;6.004;2023-03-25T10:13:09;2.57;;;0.70;;
14247;SDS011;7208;49.826;6.004;2023-03-25T10:25:58;4.23;;;1.00;;
14247;SDS011;7208;49.826;6.004;2023-03-25T10:28:31;1.17;;;0.43;;
14247;SDS011;7208;49.826;6.004;2023-03-25T10:30:58;4.30;;;0.60;;
14247;SDS011;7208;49.826;6.004;2023-03-25T10:33:35;3.90;;;0.80;;
14247;SDS011;7208;49.826;6.004;2023-03-25T10:36:02;1.17;;;0.50;;
14247;SDS011;7208;49.826;6.004;2023-03-25T10:38:29;1.67;;;0.60;;
14247;SDS011;7208;49.826;6.004;2023-03-25T10:41:11;1.70;;;0.60;;
14247;SDS011;7208;49.826;6.004;2023-03-25T10:43:40;2.00;;;0.77;;
14247;SDS011;7208;49.826;6.004;2023-03-25T10:48:51;1.43;;;0.50;;
14247;SDS011;7208;49.826;6.004;2023-03-25T10:51:28;1.63;;;0.60;;
14247;SDS011;7208;49.826;6.004;2023-03-25T10:53:54;2.23;;;0.60;;
14247;SDS011;7208;49.826;6.004;2023-03-25T10:58:48;1.80;;;0.77;;
14247;SDS011;7208;49.826;6.004;2023-03-25T11:01:37;2.37;;;0.60;;
14247;SDS011;7208;49.826;6.004;2023-03-25T11:04:03;2.37;;;0.50;;
14247;SDS011;7208;49.826;6.004;2023-03-25T11:06:30;0.83;;;0.50;;
14247;SDS011;7208;49.826;6.004;2023-03-25T11:11:33;1.10;;;0.40;;
14247;SDS011;7208;49.826;6.004;2023-03-25T11:14:00;1.50;;;0.43;;
14247;SDS011;7208;49.826;6.004;2023-03-25T11:16:35;2.30;;;0.57;;
14247;SDS011;7208;49.826;6.004;2023-03-25T11:19:02;2.43;;;0.50;;
14247;SDS011;7208;49.826;6.004;2023-03-25T11:21:32;1.13;;;0.60;;
14247;SDS011;7208;49.826;6.004;2023-03-25T11:23:58;1.63;;;0.53;;
14247;SDS011;7208;49.826;6.004;2023-03-25T11:26:28;1.67;;;0.50;;
14247;SDS011;7208;49.826;6.004;2023-03-25T11:29:17;1.47;;;0.40;;
14247;SDS011;7208;49.826;6.004;2023-03-25T11:31:44;3.43;;;0.40;;
14247;SDS011;7208;49.826;6.004;2023-03-25T11:34:20;1.80;;;0.57;;
14247;SDS011;7208;49.826;6.004;2023-03-25T11:37:21;1.47;;;0.60;;
14247;SDS011;7208;49.826;6.004;2023-03-25T11:39:40;2.93;;;0.50;;
14247;SDS011;7208;49.826;6.004;2023-03-25T11:44:49;1.27;;;0.57;;
14247;SDS011;7208;49.826;6.004;2023-03-25T11:47:17;1.30;;;0.40;;
14247;SDS011;7208;49.826;6.004;2023-03-25T11:49:46;2.33;;;0.57;;
14247;SDS011;7208;49.826;6.004;2023-03-25T11:52:17;1.63;;;0.50;;
14247;SDS011;7208;49.826;6.004;2023-03-25T11:54:45;2.13;;;0.53;;
14247;SDS011;7208;49.826;6.004;2023-03-25T11:57:16;1.83;;;0.47;;
14247;SDS011;7208;49.826;6.004;2023-03-25T11:59:43;1.20;;;0.40;;
14247;SDS011;7208;49.826;6.004;2023-03-25T12:05:08;1.13;;;0.50;;
14247;SDS011;7208;49.826;6.004;2023-03-25T12:07:28;1.60;;;0.53;;
14247;SDS011;7208;49.826;6.004;2023-03-25T12:09:56;1.60;;;0.50;;
14247;SDS011;7208;49.826;6.004;2023-03-25T12:18:03;1.30;;;0.67;;
14247;SDS011;7208;49.826;6.004;2023-03-25T12:23:09;1.00;;;0.40;;
14247;SDS011;7208;49.826;6.004;2023-03-25T12:56:24;3.63;;;0.50;;
14247;SDS011;7208;49.826;6.004;2023-03-25T13:04:09;1.83;;;0.60;;
14247;SDS011;7208;49.826;6.004;2023-03-25T13:06:42;0.53;;;0.30;;
14247;SDS011;7208;49.826;6.004;2023-03-25T13:09:12;1.53;;;0.40;;
14247;SDS011;7208;49.826;6.004;2023-03-25T13:11:41;1.53;;;0.63;;
14247;SDS011;7208;49.826;6.004;2023-03-25T13:14:26;2.07;;;0.60;;
14247;SDS011;7208;49.826;6.004;2023-03-25T13:16:54;1.97;;;0.60;;
14247;SDS011;7208;49.826;6.004;2023-03-25T13:19:23;1.57;;;0.50;;
14247;SDS011;7208;49.826;6.004;2023-03-25T13:21:52;1.63;;;0.77;;
14247;SDS011;7208;49.826;6.004;2023-03-25T13:24:22;3.03;;;0.70;;
14247;SDS011;7208;49.826;6.004;2023-03-25T13:26:50;0.53;;;0.50;;
14247;SDS011;7208;49.826;6.004;2023-03-25T13:31:46;0.90;;;0.40;;
14247;SDS011;7208;49.826;6.004;2023-03-25T13:36:55;1.53;;;0.50;;
14247;SDS011;7208;49.826;6.004;2023-03-25T13:39:33;0.90;;;0.40;;
14247;SDS011;7208;49.826;6.004;2023-03-25T13:42:09;1.57;;;0.50;;
14247;SDS011;7208;49.826;6.004;2023-03-25T13:44:38;0.77;;;0.37;;
14247;SDS011;7208;49.826;6.004;2023-03-25T13:47:11;2.67;;;1.07;;
14247;SDS011;7208;49.826;6.004;2023-03-25T13:49:44;2.27;;;0.40;;
14247;SDS011;7208;49.826;6.004;2023-03-25T13:52:12;0.67;;;0.43;;
14247;SDS011;7208;49.826;6.004;2023-03-25T14:10:22;0.93;;;0.40;;
14247;SDS011;7208;49.826;6.004;2023-03-25T14:12:50;1.87;;;0.60;;
14247;SDS011;7208;49.826;6.004;2023-03-25T14:15:19;1.43;;;0.40;;
14247;SDS011;7208;49.826;6.004;2023-03-25T14:17:46;1.20;;;0.60;;
14247;SDS011;7208;49.826;6.004;2023-03-25T14:20:48;1.57;;;0.60;;
14247;SDS011;7208;49.826;6.004;2023-03-25T14:23:07;0.60;;;0.50;;
14247;SDS011;7208;49.826;6.004;2023-03-25T14:25:37;1.20;;;0.50;;
14247;SDS011;7208;49.826;6.004;2023-03-25T14:28:05;1.07;;;0.33;;
14247;SDS011;7208;49.826;6.004;2023-03-25T14:30:32;1.07;;;0.40;;
14247;SDS011;7208;49.826;6.004;2023-03-25T14:32:59;0.90;;;0.37;;
14247;SDS011;7208;49.826;6.004;2023-03-25T14:43:25;0.90;;;0.60;;
14247;SDS011;7208;49.826;6.004;2023-03-25T14:48:52;1.73;;;0.70;;
14247;SDS011;7208;49.826;6.004;2023-03-25T14:53:59;2.47;;;0.60;;
14247;SDS011;7208;49.826;6.004;2023-03-25T14:56:33;1.17;;;0.50;;
14247;SDS011;7208;49.826;6.004;2023-03-25T14:59:05;1.23;;;0.50;;
14247;SDS011;7208;49.826;6.004;2023-03-25T15:01:33;1.13;;;0.60;;
14247;SDS011;7208;49.826;6.004;2023-03-25T15:06:45;1.60;;;0.60;;
14247;SDS011;7208;49.826;6.004;2023-03-25T15:09:13;4.13;;;0.93;;
14247;SDS011;7208;49.826;6.004;2023-03-25T15:11:44;1.23;;;0.50;;
14247;SDS011;7208;49.826;6.004;2023-03-25T15:14:18;0.30;;;0.20;;
14247;SDS011;7208;49.826;6.004;2023-03-25T15:19:12;0.40;;;0.33;;
14247;SDS011;7208;49.826;6.004;2023-03-25T15:24:33;2.03;;;0.30;;
14247;SDS011;7208;49.826;6.004;2023-03-25T15:40:33;1.37;;;0.40;;
14247;SDS011;7208;49.826;6.004;2023-03-25T15:42:39;0.37;;;0.30;;
14247;SDS011;7208;49.826;6.004;2023-03-25T15:55:49;0.20;;;0.20;;
14247;SDS011;7208;49.826;6.004;2023-03-25T16:00:49;0.90;;;0.30;;
14247;SDS011;7208;49.826;6.004;2023-03-25T16:03:18;0.40;;;0.17;;
14247;SDS011;7208;49.826;6.004;2023-03-25T16:05:59;0.20;;;0.10;;
14247;SDS011;7208;49.826;6.004;2023-03-25T16:08:27;0.20;;;0.20;;
14247;SDS011;7208;49.826;6.004;2023-03-25T16:10:55;0.20;;;0.10;;
14247;SDS011;7208;49.826;6.004;2023-03-25T16:13:21;0.33;;;0.20;;
14247;SDS011;7208;49.826;6.004;2023-03-25T16:15:51;0.60;;;0.20;;
14247;SDS011;7208;49.826;6.004;2023-03-25T16:18:18;0.20;;;0.20;;
14247;SDS011;7208;49.826;6.004;2023-03-25T16:20:45;0.30;;;0.20;;
14247;SDS011;7208;49.826;6.004;2023-03-25T16:23:15;0.47;;;0.20;;
14247;SDS011;7208;49.826;6.004;2023-03-25T16:25:43;0.73;;;0.30;;
14247;SDS011;7208;49.826;6.004;2023-03-25T16:28:42;0.27;;;0.20;;
14247;SDS011;7208;49.826;6.004;2023-03-25T16:31:01;1.33;;;0.20;;
14247;SDS011;7208;49.826;6.004;2023-03-25T16:33:29;0.20;;;0.20;;
14247;SDS011;7208;49.826;6.004;2023-03-25T16:38:25;0.30;;;0.30;;
14247;SDS011;7208;49.826;6.004;2023-03-25T16:40:51;1.30;;;0.40;;
14247;SDS011;7208;49.826;6.004;2023-03-25T16:43:24;0.73;;;0.30;;
14247;SDS011;7208;49.826;6.004;2023-03-25T16:45:57;0.43;;;0.40;;
14247;SDS011;7208;49.826;6.004;2023-03-25T16:50:53;2.00;;;0.40;;
14247;SDS011;7208;49.826;6.004;2023-03-25T16:53:21;1.37;;;0.30;;
14247;SDS011;7208;49.826;6.004;2023-03-25T16:55:48;0.37;;;0.23;;
14247;SDS011;7208;49.826;6.004;2023-03-25T16:58:21;0.80;;;0.30;;
14247;SDS011;7208;49.826;6.004;2023-03-25T17:00:49;0.87;;;0.30;;
14247;SDS011;7208;49.826;6.004;2023-03-25T17:03:18;1.20;;;0.40;;
14247;SDS011;7208;49.826;6.004;2023-03-25T17:06:10;1.17;;;0.50;;
14247;SDS011;7208;49.826;6.004;2023-03-25T17:08:38;0.60;;;0.47;;
14247;SDS011;7208;49.826;6.004;2023-03-25T17:11:05;0.37;;;0.30;;
14247;SDS011;7208;49.826;6.004;2023-03-25T17:14:06;0.30;;;0.30;;
14247;SDS011;7208;49.826;6.004;2023-03-25T17:16:29;0.30;;;0.30;;
14247;SDS011;7208;49.826;6.004;2023-03-25T17:18:56;0.50;;;0.30;;
14247;SDS011;7208;49.826;6.004;2023-03-25T17:21:24;0.40;;;0.20;;
14247;SDS011;7208;49.826;6.004;2023-03-25T17:23:51;0.60;;;0.33;;
14247;SDS011;7208;49.826;6.004;2023-03-25T17:26:18;2.97;;;0.30;;
14247;SDS011;7208;49.826;6.004;2023-03-25T17:31:32;0.30;;;0.30;;
14247;SDS011;7208;49.826;6.004;2023-03-25T17:36:40;0.40;;;0.40;;
14247;SDS011;7208;49.826;6.004;2023-03-25T17:39:17;1.53;;;0.50;;
14247;SDS011;7208;49.826;6.004;2023-03-25T17:41:44;0.53;;;0.53;;
14247;SDS011;7208;49.826;6.004;2023-03-25T17:44:14;0.20;;;0.20;;
14247;SDS011;7208;49.826;6.004;2023-03-25T17:46:41;0.10;;;0.10;;
14247;SDS011;7208;49.826;6.004;2023-03-25T17:49:14;1.30;;;0.37;;
14247;SDS011;7208;49.826;6.004;2023-03-25T17:51:41;0.40;;;0.37;;
14247;SDS011;7208;49.826;6.004;2023-03-25T17:54:07;0.30;;;0.30;;
14247;SDS011;7208;49.826;6.004;2023-03-25T17:56:33;0.53;;;0.27;;
14247;SDS011;7208;49.826;6.004;2023-03-25T17:59:03;0.20;;;0.20;;
14247;SDS011;7208;49.826;6.004;2023-03-25T18:01:31;0.20;;;0.20;;
14247;SDS011;7208;49.826;6.004;2023-03-25T18:03:57;0.20;;;0.20;;
14247;SDS011;7208;49.826;6.004;2023-03-25T18:06:23;0.20;;;0.20;;
14247;SDS011;7208;49.826;6.004;2023-03-25T18:08:49;0.67;;;0.30;;
14247;SDS011;7208;49.826;6.004;2023-03-25T18:11:16;0.20;;;0.20;;
14247;SDS011;7208;49.826;6.004;2023-03-25T18:13:42;0.93;;;0.30;;
14247;SDS011;7208;49.826;6.004;2023-03-25T18:16:12;0.90;;;0.27;;
14247;SDS011;7208;49.826;6.004;2023-03-25T18:18:38;0.30;;;0.30;;
14247;SDS011;7208;49.826;6.004;2023-03-25T18:21:05;0.93;;;0.37;;
14247;SDS011;7208;49.826;6.004;2023-03-25T18:23:31;0.30;;;0.30;;
14247;SDS011;7208;49.826;6.004;2023-03-25T18:25:57;0.40;;;0.30;;